createdAt,value
2019-06-10T12:01:49.247Z,6.67
2019-06-10T12:04:15.931Z,6.42
2019-06-10T12:06:42.830Z,5.25
2019-06-10T12:09:09.894Z,4.55
2019-06-10T12:11:36.700Z,8.35
2019-06-10T12:14:05.428Z,7.10
2019-06-10T12:17:15.760Z,6.42
2019-06-10T12:19:03.571Z,7.33
2019-06-10T12:21:29.707Z,4.97
2019-06-10T12:24:00.087Z,4.85
2019-06-10T12:26:25.029Z,7.25
2019-06-10T12:28:54.537Z,6.50
2019-06-10T12:31:23.115Z,6.85
2019-06-10T12:33:51.134Z,6.15
2019-06-10T12:36:18.455Z,5.70
2019-06-10T12:38:45.430Z,6.78
2019-06-10T12:41:14.069Z,9.10
2019-06-10T12:43:43.342Z,9.50
2019-06-10T12:46:09.811Z,6.78
2019-06-10T12:48:36.651Z,5.58
2019-06-10T12:51:08.773Z,6.35
2019-06-10T12:53:33.623Z,6.90
2019-06-10T12:56:07.012Z,4.72
2019-06-10T12:58:29.613Z,8.85
2019-06-10T13:00:57.210Z,9.23
2019-06-10T13:03:24.461Z,6.45
2019-06-10T13:05:53.044Z,6.47
2019-06-10T13:08:23.264Z,7.90
2019-06-10T19:33:04.360Z,11.20
2019-06-10T19:35:33.635Z,11.48
2019-06-10T19:38:02.052Z,14.73
2019-06-10T19:40:32.537Z,12.75
2019-06-10T19:42:59.240Z,19.20
2019-06-10T19:45:26.529Z,12.50
2019-06-10T19:47:56.598Z,12.28
2019-06-10T19:50:22.206Z,13.13
2019-06-10T19:52:49.073Z,12.80
2019-06-10T19:55:16.222Z,14.53
2019-06-10T19:57:43.696Z,12.20
2019-06-10T20:00:12.410Z,11.00
2019-06-10T20:02:39.985Z,12.85
2019-06-10T20:05:07.291Z,13.70
2019-06-10T20:07:34.485Z,17.48
2019-06-10T20:10:02.816Z,14.87
2019-06-10T20:12:32.309Z,12.10
